Changchun, China
Current Conditions -  °F | °C
As of 9:00 AM on Monday 22 Dec 2014 (Local Time) from ZYCC Reporting Station
Clear Clear  
Wind Chill: -7°   Ceiling: Unl
Heat Index:   Visibility: 4mi
Dew Point: -4°   Wind: 7mph
Humidity: 66%   Direction: 280°W
Pressure: 30.06"   Gusts: NA
Location:  43.87°N, 125.35°E
Report Text: ZYCC 220100Z 28003MPS 240V320 6000 NSC M15/M20 Q1018 NOSIG
Loading
Personal Weather Stations






























Interactive Weather Map New forecast layout! Learn more

10-Day Weather Forecast

Advertisements
Track Severe Weather on mobile